Time;durP1;ratioP1;P1;durP2;ratioP2;P2;SDS_P1;SDS_P2;PMS_P1;PMS_P2;Temp;Humidity;BMP_temperature;BMP_pressure;BME280_temperature;BME280_humidity;BME280_pressure;Samples;Min_cycle;Max_cycle;Signal;HPM_P1;HPM_P2
2021/06/30 00:00:29;;;;;;;5.93;4.53;;;17.30;99.90;;;;;;5079091;28;20453;-71
2021/06/30 00:03:14;;;;;;;4.97;4.53;;;17.40;99.90;;;;;;5093232;28;20687;-71
2021/06/30 00:06:00;;;;;;;6.73;4.90;;;17.40;99.90;;;;;;5089477;28;20434;-71
2021/06/30 00:08:45;;;;;;;6.20;5.10;;;17.40;99.90;;;;;;5089714;28;20528;-71
2021/06/30 00:11:33;;;;;;;6.30;4.60;;;17.50;99.90;;;;;;5091803;28;20435;-71
2021/06/30 00:14:18;;;;;;;7.57;4.60;;;17.50;99.90;;;;;;5073522;28;20410;-71
2021/06/30 00:17:05;;;;;;;4.83;3.90;;;17.50;99.90;;;;;;5087644;28;20554;-71
2021/06/30 00:19:51;;;;;;;8.93;4.93;;;17.40;99.90;;;;;;5088837;28;20435;-71
2021/06/30 00:22:37;;;;;;;7.17;4.63;;;17.40;99.90;;;;;;5081463;28;20538;-71
2021/06/30 00:25:22;;;;;;;13.97;5.00;;;17.30;99.90;;;;;;5090598;28;20520;-71
2021/06/30 00:28:09;;;;;;;8.20;4.70;;;17.30;99.90;;;;;;5091858;28;20492;-71
2021/06/30 00:30:55;;;;;;;4.50;4.10;;;17.20;99.90;;;;;;5085363;28;20912;-71
2021/06/30 00:33:41;;;;;;;6.60;4.53;;;17.30;99.90;;;;;;5083707;28;20395;-71
2021/06/30 00:36:27;;;;;;;4.53;4.10;;;17.30;99.90;;;;;;5082635;28;20466;-71
2021/06/30 00:39:15;;;;;;;14.13;5.27;;;17.20;99.90;;;;;;5097393;28;20483;-71
2021/06/30 00:42:00;;;;;;;4.73;4.23;;;17.20;99.90;;;;;;5093069;28;20991;-71
2021/06/30 00:44:48;;;;;;;11.13;5.00;;;17.20;99.90;;;;;;5090790;28;21120;-71
2021/06/30 00:47:34;;;;;;;18.00;4.30;;;17.20;99.90;;;;;;5081042;28;20488;-71
2021/06/30 00:50:20;;;;;;;9.20;4.10;;;17.20;99.90;;;;;;5091901;28;20461;-71
2021/06/30 00:53:06;;;;;;;10.17;4.73;;;17.20;99.90;;;;;;5086922;28;21240;-71
2021/06/30 00:55:52;;;;;;;7.63;4.60;;;17.10;99.90;;;;;;5085585;28;20474;-71
2021/06/30 00:58:38;;;;;;;8.30;4.53;;;17.10;99.90;;;;;;5084350;28;20768;-71
2021/06/30 01:01:26;;;;;;;6.53;5.10;;;17.10;99.90;;;;;;5083873;28;20460;-71
2021/06/30 01:04:12;;;;;;;6.60;4.50;;;17.10;99.90;;;;;;5094054;28;20454;-71
2021/06/30 01:06:57;;;;;;;4.70;3.93;;;17.20;99.90;;;;;;5085086;28;20834;-71
2021/06/30 01:09:43;;;;;;;9.13;5.03;;;17.20;99.90;;;;;;5090542;28;20977;-71
2021/06/30 01:12:29;;;;;;;9.87;4.93;;;17.10;99.90;;;;;;5090890;28;20448;-71
2021/06/30 01:15:15;;;;;;;5.73;4.20;;;17.20;99.90;;;;;;5090771;28;20889;-71
2021/06/30 01:18:02;;;;;;;10.00;5.33;;;17.20;99.90;;;;;;5085723;28;20419;-71
2021/06/30 01:20:48;;;;;;;16.77;5.03;;;17.30;99.90;;;;;;5092006;28;21010;-71
2021/06/30 01:23:35;;;;;;;10.77;5.37;;;17.20;99.90;;;;;;5089986;28;20979;-71
2021/06/30 01:26:21;;;;;;;5.30;3.97;;;17.20;99.90;;;;;;5092680;28;20535;-71
2021/06/30 01:29:06;;;;;;;7.33;4.30;;;17.20;99.90;;;;;;5090037;28;20462;-71
2021/06/30 01:31:53;;;;;;;5.53;4.07;;;17.20;99.90;;;;;;5085665;28;20423;-71
2021/06/30 01:34:39;;;;;;;12.97;5.27;;;17.10;99.90;;;;;;5088716;28;20441;-71
2021/06/30 01:37:25;;;;;;;6.80;3.83;;;17.10;99.90;;;;;;5077376;28;20431;-71
2021/06/30 01:40:14;;;;;;;5.17;4.33;;;17.10;99.90;;;;;;5085947;28;20440;-71
2021/06/30 01:43:00;;;;;;;7.47;4.07;;;17.10;99.90;;;;;;5091615;28;20957;-71
2021/06/30 01:45:46;;;;;;;5.87;4.23;;;17.00;99.90;;;;;;5084221;28;20450;-71
2021/06/30 01:48:32;;;;;;;6.10;4.63;;;17.10;99.90;;;;;;5090341;28;20538;-71
2021/06/30 01:51:17;;;;;;;12.00;4.33;;;17.10;99.90;;;;;;5090023;28;20915;-71
2021/06/30 01:54:05;;;;;;;6.10;4.10;;;17.00;99.90;;;;;;5091922;28;20399;-71
2021/06/30 01:56:52;;;;;;;8.77;4.83;;;17.00;99.90;;;;;;5090859;28;20505;-71
2021/06/30 01:59:38;;;;;;;5.27;4.67;;;17.00;99.90;;;;;;5086897;28;20448;-71
2021/06/30 02:02:28;;;;;;;6.60;5.03;;;17.00;99.90;;;;;;5088964;28;20977;-71
2021/06/30 02:05:16;;;;;;;7.13;4.00;;;17.00;99.90;;;;;;5090770;28;20475;-71
2021/06/30 02:08:03;;;;;;;9.07;5.17;;;17.00;99.90;;;;;;5084269;28;20464;-71
2021/06/30 02:10:48;;;;;;;21.00;4.57;;;17.00;99.90;;;;;;5088841;28;20834;-71
2021/06/30 02:13:35;;;;;;;6.60;4.53;;;16.90;99.90;;;;;;5089821;28;20426;-71
2021/06/30 02:16:21;;;;;;;5.30;4.40;;;16.80;99.90;;;;;;5080853;28;20539;-71
2021/06/30 02:19:08;;;;;;;22.70;5.60;;;16.70;99.90;;;;;;5074946;28;20461;-71
2021/06/30 02:21:53;;;;;;;9.20;5.00;;;16.60;99.90;;;;;;5080162;28;21334;-71
2021/06/30 02:24:39;;;;;;;5.27;4.60;;;16.50;99.90;;;;;;5080219;28;20494;-71
2021/06/30 02:27:25;;;;;;;6.80;4.80;;;16.50;99.90;;;;;;5089865;28;20455;-71
2021/06/30 02:30:15;;;;;;;8.00;4.23;;;16.50;99.90;;;;;;5086428;28;20415;-71
2021/06/30 02:33:01;;;;;;;6.53;4.13;;;16.60;99.90;;;;;;5084704;28;20457;-71
2021/06/30 02:35:47;;;;;;;5.60;4.20;;;16.60;99.90;;;;;;5083742;28;20439;-71
2021/06/30 02:38:33;;;;;;;6.33;4.60;;;16.60;99.90;;;;;;5089603;28;20473;-71
2021/06/30 02:41:18;;;;;;;6.97;3.87;;;16.60;99.90;;;;;;5084793;28;20448;-71
2021/06/30 02:44:04;;;;;;;12.93;5.00;;;16.70;99.90;;;;;;5084961;28;20977;-71
2021/06/30 02:46:51;;;;;;;10.30;4.80;;;16.60;99.90;;;;;;5087160;28;20445;-71
2021/06/30 02:49:37;;;;;;;40.70;4.80;;;16.60;99.90;;;;;;5089656;28;20582;-71
2021/06/30 02:52:23;;;;;;;6.30;3.83;;;16.60;99.90;;;;;;5093798;28;20955;-71
2021/06/30 02:55:10;;;;;;;5.80;4.10;;;16.60;99.90;;;;;;5094065;28;21038;-71
2021/06/30 02:57:56;;;;;;;5.77;3.90;;;16.60;99.90;;;;;;5086000;28;20444;-71
2021/06/30 03:00:41;;;;;;;8.03;3.90;;;16.60;99.90;;;;;;5082810;28;20480;-71
2021/06/30 03:03:28;;;;;;;11.20;4.33;;;16.60;99.90;;;;;;5087725;28;20906;-71
2021/06/30 03:06:14;;;;;;;8.00;4.00;;;16.50;99.90;;;;;;5092108;28;21119;-71
2021/06/30 03:08:59;;;;;;;6.60;4.00;;;16.40;99.90;;;;;;5087226;28;20898;-71
2021/06/30 03:11:45;;;;;;;6.13;4.20;;;16.50;99.90;;;;;;5093065;28;20412;-71
2021/06/30 03:14:31;;;;;;;6.77;4.27;;;16.40;99.90;;;;;;5093735;28;20451;-71
2021/06/30 03:17:17;;;;;;;12.07;4.47;;;16.40;99.90;;;;;;5088577;28;20905;-72
2021/06/30 03:20:05;;;;;;;6.97;4.17;;;16.40;99.90;;;;;;5093206;28;20832;-71
2021/06/30 03:22:50;;;;;;;8.10;4.00;;;16.40;99.90;;;;;;5094447;28;21023;-70
2021/06/30 03:25:36;;;;;;;7.30;4.60;;;16.40;99.90;;;;;;5072956;28;20495;-71
2021/06/30 03:28:22;;;;;;;9.87;4.60;;;16.50;99.90;;;;;;5091535;28;20464;-71
2021/06/30 03:31:07;;;;;;;5.80;4.10;;;16.60;99.90;;;;;;5088993;28;20537;-71
2021/06/30 03:33:53;;;;;;;4.43;4.03;;;16.70;99.90;;;;;;5090117;28;20419;-71
2021/06/30 03:36:40;;;;;;;7.43;3.70;;;16.80;99.90;;;;;;5076757;28;20469;-71
2021/06/30 03:39:26;;;;;;;4.63;4.17;;;16.80;99.90;;;;;;5090759;28;20959;-72
2021/06/30 03:42:12;;;;;;;9.73;4.27;;;17.00;99.90;;;;;;5084262;28;20447;-70
2021/06/30 03:44:57;;;;;;;10.30;4.47;;;17.00;99.90;;;;;;5083999;28;20456;-71
2021/06/30 03:47:43;;;;;;;8.57;5.00;;;17.00;99.90;;;;;;5088858;28;20580;-69
2021/06/30 03:50:29;;;;;;;5.30;4.80;;;17.00;99.90;;;;;;5091152;28;20443;-71
2021/06/30 03:53:15;;;;;;;9.63;5.00;;;17.00;99.90;;;;;;5090954;28;20449;-71
2021/06/30 03:56:01;;;;;;;9.33;5.03;;;17.10;99.90;;;;;;5092847;28;20472;-70
2021/06/30 03:58:47;;;;;;;8.43;6.00;;;17.10;99.90;;;;;;5082470;28;20441;-71
2021/06/30 04:01:33;;;;;;;8.07;5.73;;;17.10;99.90;;;;;;5091631;28;20431;-71
2021/06/30 04:04:19;;;;;;;7.17;5.57;;;17.00;99.90;;;;;;5092201;28;20809;-70
2021/06/30 04:07:05;;;;;;;5.20;4.70;;;17.00;99.90;;;;;;5091933;28;20455;-71
2021/06/30 04:09:52;;;;;;;6.53;5.47;;;17.10;99.90;;;;;;5091370;28;20468;-71
2021/06/30 04:12:38;;;;;;;5.93;5.33;;;17.00;99.90;;;;;;5089704;28;20808;-71
2021/06/30 04:15:23;;;;;;;7.43;4.73;;;17.00;99.90;;;;;;5091151;28;20953;-70
2021/06/30 04:18:09;;;;;;;5.73;5.03;;;17.00;99.90;;;;;;5080862;28;20540;-71
2021/06/30 04:20:55;;;;;;;7.70;4.43;;;17.10;99.90;;;;;;5091373;28;20502;-71
2021/06/30 04:23:41;;;;;;;8.73;4.80;;;17.10;99.90;;;;;;5095668;28;20809;-71
2021/06/30 04:26:28;;;;;;;7.87;3.90;;;17.10;99.90;;;;;;5093184;28;20450;-71
2021/06/30 04:29:14;;;;;;;6.97;4.10;;;17.10;99.90;;;;;;5087551;28;20459;-71
2021/06/30 04:32:00;;;;;;;12.37;4.30;;;17.10;99.90;;;;;;5089960;28;20483;-71
2021/06/30 04:34:45;;;;;;;4.53;3.90;;;17.10;99.90;;;;;;5085852;28;20417;-72
2021/06/30 04:37:31;;;;;;;5.70;4.40;;;17.10;99.90;;;;;;5091909;28;20974;-71
2021/06/30 04:40:17;;;;;;;8.10;3.90;;;17.10;99.90;;;;;;5094042;28;20403;-71
2021/06/30 04:43:04;;;;;;;4.33;3.23;;;17.10;99.90;;;;;;5093196;28;20432;-72
2021/06/30 04:45:49;;;;;;;7.57;3.73;;;17.10;99.90;;;;;;5085387;28;20855;-71
2021/06/30 04:48:35;;;;;;;10.37;3.80;;;17.20;99.90;;;;;;5089130;28;20476;-71
2021/06/30 04:51:21;;;;;;;3.90;3.50;;;17.20;99.90;;;;;;5090151;28;20599;-71
2021/06/30 04:54:07;;;;;;;5.40;3.27;;;17.20;99.90;;;;;;5094496;28;20449;-71
2021/06/30 04:56:53;;;;;;;3.37;3.00;;;17.10;99.90;;;;;;5086883;28;20445;-70
2021/06/30 04:59:40;;;;;;;9.60;2.50;;;17.10;99.90;;;;;;5082593;28;20983;-71
2021/06/30 05:02:26;;;;;;;5.23;2.30;;;17.10;99.90;;;;;;5089877;28;20515;-70
2021/06/30 05:05:12;;;;;;;2.60;2.20;;;17.20;99.90;;;;;;5088129;28;20461;-70
2021/06/30 05:07:58;;;;;;;6.77;2.30;;;17.20;99.90;;;;;;5091900;28;20792;-69
2021/06/30 05:10:43;;;;;;;4.23;1.63;;;17.20;99.90;;;;;;5084347;28;20441;-71
2021/06/30 05:13:29;;;;;;;2.57;1.63;;;17.30;99.90;;;;;;5085901;28;20452;-71
2021/06/30 05:16:16;;;;;;;6.40;2.30;;;17.30;99.90;;;;;;5089202;28;20454;-70
2021/06/30 05:19:01;;;;;;;2.80;1.77;;;17.20;99.90;;;;;;5077684;28;20419;-71
2021/06/30 05:21:47;;;;;;;1.93;1.70;;;17.20;99.90;;;;;;5090587;28;20987;-71
2021/06/30 05:24:33;;;;;;;2.60;1.77;;;17.20;99.90;;;;;;5090205;28;20912;-71
2021/06/30 05:27:19;;;;;;;4.73;1.80;;;17.20;99.90;;;;;;5082359;28;20463;-71
2021/06/30 05:30:06;;;;;;;2.80;1.77;;;17.20;99.90;;;;;;5086182;28;20475;-70
2021/06/30 05:32:53;;;;;;;6.57;2.13;;;17.20;99.90;;;;;;5090242;28;20452;-71
2021/06/30 05:35:39;;;;;;;1.97;1.50;;;17.20;99.90;;;;;;5088625;28;21298;-71
2021/06/30 05:38:24;;;;;;;4.63;1.90;;;17.20;99.90;;;;;;5088158;28;21020;-71
2021/06/30 05:41:10;;;;;;;7.23;1.90;;;17.20;99.90;;;;;;5091031;28;20523;-71
2021/06/30 05:43:56;;;;;;;6.13;1.97;;;17.20;99.90;;;;;;5087300;28;20979;-71
2021/06/30 05:46:43;;;;;;;5.93;1.43;;;17.30;99.90;;;;;;5086475;28;20554;-70
2021/06/30 05:49:30;;;;;;;19.17;1.60;;;17.30;99.90;;;;;;5084165;28;20463;-70
2021/06/30 05:52:16;;;;;;;2.67;1.43;;;17.30;99.90;;;;;;5089647;28;20423;-70
2021/06/30 05:55:01;;;;;;;5.03;1.40;;;17.30;99.90;;;;;;5090514;28;20616;-71
2021/06/30 05:57:47;;;;;;;4.90;1.50;;;17.30;99.90;;;;;;5097306;28;20792;-71
2021/06/30 06:00:33;;;;;;;2.63;1.60;;;17.30;99.90;;;;;;5089890;28;20564;-70
2021/06/30 06:03:18;;;;;;;3.80;1.30;;;17.30;99.90;;;;;;5090128;28;20527;-71
2021/06/30 06:06:05;;;;;;;3.70;1.70;;;17.30;99.90;;;;;;5070777;28;20948;-71
2021/06/30 06:08:51;;;;;;;3.83;1.50;;;17.30;99.90;;;;;;5105720;28;20475;-70
2021/06/30 06:11:37;;;;;;;2.73;1.60;;;17.20;99.90;;;;;;5082241;28;20432;-71
2021/06/30 06:14:22;;;;;;;3.00;1.60;;;17.00;99.90;;;;;;5091633;28;20432;-71
2021/06/30 06:17:09;;;;;;;3.20;1.60;;;16.80;99.90;;;;;;5088534;28;20452;-71
2021/06/30 06:19:54;;;;;;;3.67;1.50;;;16.80;99.90;;;;;;5088715;28;20436;-71
2021/06/30 06:22:41;;;;;;;2.50;1.40;;;16.80;99.90;;;;;;5087061;28;20448;-70
2021/06/30 06:25:27;;;;;;;2.70;1.50;;;16.80;99.90;;;;;;5088445;28;20814;-70
2021/06/30 06:28:15;;;;;;;2.20;1.40;;;17.00;99.90;;;;;;5075866;28;20425;-71
2021/06/30 06:31:01;;;;;;;6.13;1.40;;;17.00;99.90;;;;;;5088067;28;20842;-70
2021/06/30 06:33:47;;;;;;;2.10;1.50;;;17.00;99.90;;;;;;5083623;28;20443;-71
2021/06/30 06:36:34;;;;;;;6.00;1.50;;;17.10;99.90;;;;;;5086223;28;20456;-71
2021/06/30 06:39:21;;;;;;;3.93;1.50;;;17.20;99.90;;;;;;5090570;28;20418;-71
2021/06/30 06:42:08;;;;;;;1.83;1.20;;;17.30;99.90;;;;;;5087899;28;20453;-71
2021/06/30 06:44:53;;;;;;;7.23;1.30;;;17.30;99.90;;;;;;5087553;28;20452;-70
2021/06/30 06:47:39;;;;;;;6.27;1.63;;;17.40;99.90;;;;;;5083982;28;20518;-69
2021/06/30 06:50:24;;;;;;;2.30;1.17;;;17.40;99.90;;;;;;5089122;28;20971;-69
2021/06/30 06:53:10;;;;;;;1.90;1.00;;;17.40;99.90;;;;;;5089259;28;20542;-70
2021/06/30 06:56:00;;;;;;;2.23;1.33;;;17.40;99.90;;;;;;5088105;28;20476;-69
2021/06/30 06:58:46;;;;;;;4.90;1.33;;;17.50;99.90;;;;;;5081785;28;20424;-71
2021/06/30 07:01:31;;;;;;;6.40;1.07;;;17.50;99.90;;;;;;5090196;28;20487;-70
2021/06/30 07:04:17;;;;;;;2.90;1.07;;;17.50;99.90;;;;;;5090737;28;20428;-70
2021/06/30 07:07:03;;;;;;;1.97;1.30;;;17.50;99.90;;;;;;5090140;28;20518;-71
2021/06/30 07:09:49;;;;;;;2.93;1.70;;;17.60;99.90;;;;;;5083278;28;20488;-69
2021/06/30 07:12:36;;;;;;;2.10;1.40;;;17.60;99.90;;;;;;5089329;28;20427;-71
2021/06/30 07:15:21;;;;;;;2.63;1.23;;;17.70;99.90;;;;;;5088039;28;20485;-70
2021/06/30 07:18:11;;;;;;;2.60;1.00;;;17.50;99.90;;;;;;5086758;28;21092;-71
2021/06/30 07:20:57;;;;;;;3.70;1.50;;;17.60;99.90;;;;;;5082999;28;20617;-71
2021/06/30 07:23:42;;;;;;;1.67;1.13;;;17.60;99.90;;;;;;5084138;28;20444;-71
2021/06/30 07:26:28;;;;;;;2.90;1.00;;;17.40;99.90;;;;;;5089563;28;20468;-70
2021/06/30 07:29:15;;;;;;;2.70;1.13;;;17.40;99.90;;;;;;5083978;28;20920;-70
2021/06/30 07:32:01;;;;;;;2.23;1.07;;;17.40;99.90;;;;;;5089425;28;20456;-70
2021/06/30 07:34:47;;;;;;;5.77;1.20;;;17.10;99.90;;;;;;5076695;28;20456;-71
2021/06/30 07:37:32;;;;;;;1.83;1.00;;;17.00;99.90;;;;;;5089750;28;20969;-70
2021/06/30 07:40:19;;;;;;;2.03;1.20;;;17.00;99.90;;;;;;5088991;28;20456;-69
2021/06/30 07:43:05;;;;;;;2.67;1.07;;;17.00;99.90;;;;;;5091359;28;20470;-70
2021/06/30 07:45:52;;;;;;;2.97;0.90;;;17.10;99.90;;;;;;5102433;22;20426;-75
2021/06/30 07:48:38;;;;;;;2.13;1.03;;;17.10;99.90;;;;;;5090579;28;20495;-75
2021/06/30 07:51:24;;;;;;;2.00;1.07;;;17.10;99.90;;;;;;5083683;28;20480;-76
2021/06/30 07:54:10;;;;;;;2.30;1.40;;;17.00;99.90;;;;;;5092284;28;20920;-75
2021/06/30 07:56:55;;;;;;;2.13;1.50;;;16.90;99.90;;;;;;5087511;28;20513;-76
2021/06/30 07:59:41;;;;;;;2.17;1.60;;;16.80;99.90;;;;;;5083794;28;20419;-77
2021/06/30 08:02:28;;;;;;;2.57;1.60;;;16.70;99.90;;;;;;5083331;28;20457;-76
2021/06/30 08:05:14;;;;;;;6.77;1.83;;;16.70;99.90;;;;;;5077413;28;20440;-76
2021/06/30 08:08:00;;;;;;;2.40;2.20;;;16.70;99.90;;;;;;5094503;28;20437;-77
2021/06/30 08:10:45;;;;;;;4.40;2.70;;;16.70;99.90;;;;;;5084081;28;20451;-76
2021/06/30 08:13:31;;;;;;;9.20;3.17;;;16.80;99.90;;;;;;5086475;28;20945;-76
2021/06/30 08:16:17;;;;;;;3.33;3.03;;;16.90;99.90;;;;;;5090631;28;20419;-77
2021/06/30 08:19:04;;;;;;;4.40;4.00;;;17.00;99.90;;;;;;5089577;28;20426;-74
2021/06/30 08:21:50;;;;;;;4.67;4.27;;;17.00;99.90;;;;;;5086973;28;20440;-76
2021/06/30 08:24:35;;;;;;;6.37;5.53;;;17.10;99.90;;;;;;5086498;28;20471;-76
2021/06/30 08:27:22;;;;;;;4.10;3.70;;;17.20;99.90;;;;;;5091166;28;20506;-74
2021/06/30 08:30:10;;;;;;;5.70;3.90;;;17.10;99.90;;;;;;5073326;28;20843;-75
2021/06/30 08:32:55;;;;;;;7.90;5.57;;;17.30;99.90;;;;;;5073498;28;20418;-75
2021/06/30 08:35:43;;;;;;;4.23;2.97;;;17.40;99.90;;;;;;5082881;28;20451;-76
2021/06/30 08:38:28;;;;;;;4.10;3.10;;;17.40;99.90;;;;;;5085928;28;20513;-76
2021/06/30 08:41:14;;;;;;;3.17;2.53;;;17.40;99.90;;;;;;5081906;28;20437;-76
2021/06/30 08:43:59;;;;;;;3.27;2.53;;;17.40;99.90;;;;;;5079861;28;20548;-76
2021/06/30 08:46:46;;;;;;;3.63;2.80;;;17.30;99.90;;;;;;5094232;28;20483;-77
2021/06/30 08:49:35;;;;;;;6.33;2.20;;;17.20;99.90;;;;;;5075997;28;20456;-76
2021/06/30 08:52:22;;;;;;;2.30;2.00;;;17.20;99.90;;;;;;5084912;28;20460;-76
2021/06/30 08:55:10;;;;;;;3.10;2.33;;;17.30;99.90;;;;;;5072648;28;21016;-75
2021/06/30 08:57:56;;;;;;;5.30;2.40;;;17.50;99.90;;;;;;5088083;28;20453;-75
2021/06/30 09:00:43;;;;;;;3.70;2.20;;;17.70;99.90;;;;;;5079483;28;20411;-75
2021/06/30 09:03:29;;;;;;;2.70;1.80;;;17.60;99.90;;;;;;5078801;28;20459;-75
2021/06/30 09:06:16;;;;;;;2.80;1.87;;;17.70;99.90;;;;;;5083927;28;20438;-75
2021/06/30 09:09:07;;;;;;;3.67;2.40;;;17.80;99.90;;;;;;5084838;28;20437;-75
2021/06/30 09:11:58;;;;;;;2.67;1.70;;;17.80;99.90;;;;;;5084175;28;20425;-74
2021/06/30 09:14:43;;;;;;;4.03;1.90;;;17.80;99.90;;;;;;5098880;28;20428;-75
2021/06/30 09:17:29;;;;;;;5.70;2.30;;;17.90;99.90;;;;;;5070934;28;20511;-74
2021/06/30 09:20:15;;;;;;;2.67;2.03;;;18.00;99.90;;;;;;5075790;28;21304;-75
2021/06/30 09:23:05;;;;;;;4.20;2.13;;;18.00;99.90;;;;;;5103085;28;20425;-75
2021/06/30 09:25:52;;;;;;;4.60;2.43;;;18.10;99.90;;;;;;5096954;28;21097;-75
2021/06/30 09:28:44;;;;;;;6.07;2.10;;;18.20;99.90;;;;;;5081021;28;20429;-75
2021/06/30 09:31:30;;;;;;;3.37;2.10;;;18.40;99.90;;;;;;5108710;28;20481;-74
2021/06/30 09:34:20;;;;;;;3.27;1.93;;;18.60;99.90;;;;;;5098672;28;20482;-75
2021/06/30 09:37:07;;;;;;;1.70;1.30;;;18.70;99.90;;;;;;5087585;28;20456;-75
2021/06/30 09:39:55;;;;;;;3.60;2.00;;;18.80;99.90;;;;;;5097298;28;20735;-75
2021/06/30 09:42:43;;;;;;;2.00;1.60;;;18.90;99.90;;;;;;5093996;28;20433;-75
2021/06/30 09:45:33;;;;;;;2.30;1.87;;;19.10;99.90;;;;;;5100582;28;20498;-75
2021/06/30 09:48:30;;;;;;;2.87;1.50;;;19.20;99.90;;;;;;5101989;28;20440;-75
2021/06/30 09:51:18;;;;;;;4.53;2.57;;;19.10;99.90;;;;;;5099136;28;21101;-75
2021/06/30 09:54:06;;;;;;;2.20;1.90;;;19.00;99.90;;;;;;5092152;28;20472;-74
2021/06/30 09:56:56;;;;;;;29.57;2.93;;;18.90;99.90;;;;;;5097498;28;20900;-74
2021/06/30 09:59:45;;;;;;;8.10;3.70;;;18.70;99.90;;;;;;5093851;28;20552;-74
2021/06/30 10:02:40;;;;;;;2.20;1.60;;;18.40;99.90;;;;;;5090257;28;20441;-74
2021/06/30 10:05:32;;;;;;;2.27;1.70;;;18.30;99.90;;;;;;5097278;28;20437;-77
2021/06/30 10:08:19;;;;;;;2.67;1.50;;;18.30;99.90;;;;;;5093198;28;20431;-76
2021/06/30 10:11:10;;;;;;;5.10;1.40;;;18.40;99.90;;;;;;5084378;28;20458;-76
2021/06/30 10:13:57;;;;;;;2.50;1.00;;;18.40;99.90;;;;;;5090932;28;20807;-76
2021/06/30 10:16:44;;;;;;;1.60;0.90;;;18.40;99.90;;;;;;5089233;28;20517;-75
2021/06/30 10:19:30;;;;;;;2.93;0.90;;;18.40;99.90;;;;;;5089519;28;20426;-76
2021/06/30 10:22:16;;;;;;;6.17;1.00;;;18.60;99.90;;;;;;5089595;28;20422;-76
2021/06/30 10:25:04;;;;;;;1.50;0.90;;;18.50;99.90;;;;;;5088851;28;20423;-76
2021/06/30 10:27:54;;;;;;;1.47;0.80;;;18.40;99.90;;;;;;5093919;28;20826;-76
2021/06/30 10:30:40;;;;;;;2.90;0.83;;;18.20;99.90;;;;;;5076777;28;20469;-76
2021/06/30 10:33:37;;;;;;;2.07;0.97;;;18.10;99.90;;;;;;5078431;28;20425;-76
2021/06/30 10:36:43;;;;;;;1.53;0.97;;;18.10;99.90;;;;;;5089053;28;20423;-76
2021/06/30 10:39:46;;;;;;;2.03;1.10;;;18.10;99.90;;;;;;5086842;28;20920;-75
2021/06/30 10:42:34;;;;;;;3.30;1.70;;;18.10;99.90;;;;;;5080502;28;20420;-75
2021/06/30 10:45:23;;;;;;;2.50;1.47;;;18.20;99.90;;;;;;5084170;28;20807;-75
2021/06/30 10:48:10;;;;;;;1.70;1.10;;;18.30;99.90;;;;;;5101248;28;20665;-75
2021/06/30 10:50:58;;;;;;;3.40;1.10;;;18.40;99.90;;;;;;5094358;28;20489;-73
2021/06/30 10:53:44;;;;;;;2.03;1.30;;;18.40;99.90;;;;;;5091352;28;20517;-75
2021/06/30 10:56:33;;;;;;;1.50;1.00;;;18.40;99.90;;;;;;5109680;28;20452;-75
2021/06/30 10:59:18;;;;;;;3.40;1.30;;;18.60;99.90;;;;;;5087814;28;20400;-75
2021/06/30 11:02:13;;;;;;;1.80;1.10;;;18.70;99.90;;;;;;5088458;28;20917;-74
2021/06/30 11:05:32;;;;;;;2.50;1.10;;;19.00;99.90;;;;;;5090467;28;20392;-75
2021/06/30 11:08:45;;;;;;;3.40;1.37;;;19.10;99.90;;;;;;5070641;28;20414;-75
2021/06/30 11:11:54;;;;;;;2.10;1.07;;;19.30;99.90;;;;;;5075927;28;20484;-76
2021/06/30 11:14:45;;;;;;;1.73;1.13;;;19.50;99.90;;;;;;5084132;28;20500;-76
2021/06/30 11:17:37;;;;;;;3.93;1.40;;;19.40;99.90;;;;;;5091522;28;20462;-75
2021/06/30 11:20:44;;;;;;;3.83;1.17;;;19.50;99.90;;;;;;5084898;28;20961;-75
2021/06/30 11:23:30;;;;;;;3.10;1.00;;;19.50;99.90;;;;;;5089886;28;20578;-76
2021/06/30 11:26:38;;;;;;;1.63;0.77;;;19.50;99.90;;;;;;5080579;28;20604;-76
2021/06/30 11:29:45;;;;;;;1.90;1.03;;;19.70;99.90;;;;;;5092613;28;20419;-76
2021/06/30 11:32:45;;;;;;;2.40;1.03;;;20.10;99.90;;;;;;5080879;28;20461;-75
2021/06/30 11:35:34;;;;;;;1.77;0.80;;;20.20;99.90;;;;;;5085810;28;20825;-76
2021/06/30 11:38:23;;;;;;;2.50;1.00;;;20.30;99.90;;;;;;5075759;28;20541;-76
2021/06/30 11:41:11;;;;;;;7.30;1.10;;;20.50;99.90;;;;;;5076776;28;20400;-76
2021/06/30 11:43:58;;;;;;;5.77;1.07;;;20.70;99.90;;;;;;5086733;28;20462;-76
2021/06/30 11:46:44;;;;;;;1.80;0.80;;;20.70;99.90;;;;;;5094154;28;20500;-76
2021/06/30 11:49:30;;;;;;;2.80;0.90;;;20.90;99.90;;;;;;5091572;28;20564;-75
2021/06/30 11:52:16;;;;;;;4.50;0.90;;;21.00;99.90;;;;;;5093381;28;20468;-76
2021/06/30 11:55:02;;;;;;;3.20;0.87;;;21.00;99.90;;;;;;5094254;28;20817;-76
2021/06/30 11:57:55;;;;;;;3.40;1.00;;;20.90;99.90;;;;;;5091052;28;20450;-74
2021/06/30 12:00:44;;;;;;;1.73;1.00;;;21.00;99.90;;;;;;5093597;28;20644;-75
2021/06/30 12:03:31;;;;;;;7.03;1.10;;;20.70;99.90;;;;;;5093575;28;20416;-75
2021/06/30 12:06:24;;;;;;;1.70;0.83;;;20.60;99.90;;;;;;5096039;28;20440;-75
2021/06/30 12:09:15;;;;;;;3.77;1.00;;;20.50;99.90;;;;;;5093817;28;20571;-73
2021/06/30 12:12:05;;;;;;;2.00;1.10;;;20.70;99.90;;;;;;5092926;28;20559;-76
2021/06/30 12:14:50;;;;;;;2.10;0.80;;;20.90;99.90;;;;;;5092395;28;20822;-75
2021/06/30 12:17:38;;;;;;;2.90;1.10;;;20.90;99.90;;;;;;5093319;28;20536;-75
2021/06/30 12:20:25;;;;;;;1.93;0.80;;;20.90;99.90;;;;;;5092830;28;20473;-76
2021/06/30 12:23:11;;;;;;;2.07;1.17;;;20.80;99.90;;;;;;5092938;28;20426;-76
2021/06/30 12:26:05;;;;;;;2.00;0.87;;;20.90;99.90;;;;;;5091514;28;20472;-75
2021/06/30 12:28:51;;;;;;;2.33;0.97;;;20.70;99.90;;;;;;5090375;28;20476;-76
2021/06/30 12:31:36;;;;;;;1.90;1.10;;;20.50;99.90;;;;;;5079868;28;20466;-75
2021/06/30 12:34:24;;;;;;;4.77;1.03;;;20.50;99.90;;;;;;5082392;28;20453;-76
2021/06/30 12:37:10;;;;;;;2.40;1.30;;;20.60;99.90;;;;;;5091992;28;20772;-75
2021/06/30 12:39:59;;;;;;;1.60;0.97;;;20.60;99.90;;;;;;5091179;28;20445;-76
2021/06/30 12:42:51;;;;;;;2.40;0.93;;;20.50;99.90;;;;;;5092045;28;20439;-76
2021/06/30 12:45:39;;;;;;;2.23;1.00;;;20.60;99.90;;;;;;5093195;28;20448;-75
2021/06/30 12:48:26;;;;;;;1.67;0.80;;;20.90;99.90;;;;;;5074301;28;20455;-76
2021/06/30 12:51:15;;;;;;;2.43;1.10;;;21.10;99.90;;;;;;5090932;28;20485;-76
2021/06/30 12:54:04;;;;;;;1.90;0.90;;;20.80;99.90;;;;;;5091719;28;20544;-76
2021/06/30 12:57:01;;;;;;;1.70;1.10;;;20.70;99.90;;;;;;5091267;28;20857;-75
2021/06/30 13:00:06;;;;;;;1.80;1.20;;;20.70;99.90;;;;;;5090973;28;20596;-76
2021/06/30 13:03:13;;;;;;;4.93;1.33;;;20.50;99.90;;;;;;5076529;28;20426;-75
2021/06/30 13:06:22;;;;;;;1.80;1.10;;;20.30;99.90;;;;;;5082073;28;20949;-76
2021/06/30 13:09:09;;;;;;;3.70;1.00;;;20.30;99.90;;;;;;5088033;28;20434;-76
2021/06/30 13:11:57;;;;;;;1.63;1.07;;;20.50;99.90;;;;;;5089703;28;20469;-76
2021/06/30 13:14:48;;;;;;;1.80;1.10;;;20.80;99.90;;;;;;5098894;28;20501;-76
2021/06/30 13:17:34;;;;;;;2.90;0.87;;;21.00;99.90;;;;;;5092615;28;20462;-75
2021/06/30 13:20:20;;;;;;;2.00;1.10;;;21.00;99.90;;;;;;5090120;28;20831;-76
2021/06/30 13:23:07;;;;;;;4.30;0.93;;;21.30;99.90;;;;;;5073370;28;20409;-76
2021/06/30 13:26:05;;;;;;;3.20;1.20;;;21.70;99.60;;;;;;5089597;28;20816;-76
2021/06/30 13:35:21;;;;;;;2.03;1.10;;;21.90;95.90;;;;;;5089605;28;20454;-76
2021/06/30 13:38:11;;;;;;;6.33;2.50;;;21.40;96.10;;;;;;5090093;28;21074;-75
2021/06/30 13:40:59;;;;;;;3.40;1.80;;;20.90;99.90;;;;;;5089450;28;20447;-76
2021/06/30 13:43:46;;;;;;;6.67;1.70;;;20.10;99.90;;;;;;5075733;28;21339;-75
2021/06/30 13:46:32;;;;;;;5.00;2.10;;;19.40;99.90;;;;;;5101967;22;22492;-70
2021/06/30 13:49:17;;;;;;;3.70;1.80;;;18.90;99.90;;;;;;5069948;28;20870;-70
2021/06/30 13:52:03;;;;;;;4.90;2.03;;;18.70;99.90;;;;;;5068541;28;20620;-70
2021/06/30 13:54:50;;;;;;;4.30;1.73;;;18.70;99.90;;;;;;5070047;28;20457;-70
2021/06/30 13:57:36;;;;;;;6.73;2.33;;;18.60;99.90;;;;;;5052968;28;20438;-70
2021/06/30 14:00:22;;;;;;;3.00;1.60;;;18.60;99.90;;;;;;5065033;28;20575;-70
2021/06/30 14:03:09;;;;;;;7.13;2.20;;;18.70;99.90;;;;;;5070332;28;20442;-70
2021/06/30 14:05:55;;;;;;;3.10;2.07;;;18.80;99.90;;;;;;5062779;28;20510;-70
2021/06/30 14:08:41;;;;;;;2.77;1.80;;;19.00;99.90;;;;;;5067362;28;20450;-70
2021/06/30 14:11:30;;;;;;;3.60;2.10;;;19.20;99.90;;;;;;5056901;28;20493;-70
2021/06/30 14:14:16;;;;;;;5.60;2.47;;;19.30;99.90;;;;;;5058431;28;20455;-70
2021/06/30 14:17:01;;;;;;;5.10;1.80;;;19.40;99.90;;;;;;5065325;28;20862;-70
2021/06/30 14:19:47;;;;;;;2.77;1.67;;;19.70;99.90;;;;;;5068104;28;20454;-70
2021/06/30 14:22:34;;;;;;;3.00;1.60;;;20.00;99.90;;;;;;5055580;28;20449;-70
2021/06/30 14:25:20;;;;;;;4.07;1.80;;;20.20;99.90;;;;;;5058763;28;20451;-70
2021/06/30 14:28:07;;;;;;;2.10;1.40;;;20.40;99.90;;;;;;5059922;28;20570;-70
2021/06/30 14:30:53;;;;;;;2.63;1.63;;;20.50;99.90;;;;;;5060777;28;20443;-69
2021/06/30 14:33:40;;;;;;;3.20;1.63;;;20.40;99.90;;;;;;5066575;28;20416;-69
2021/06/30 14:36:25;;;;;;;3.43;1.80;;;20.70;99.90;;;;;;5068936;28;20860;-69